DTTL

Kelibia Airport

Kelibia, Tunisia
METAR DTTL 220600Z 16003KT 050V210 9999 FEW020 17/17 Q1018
Observed Flight Rules
Apr-22 @ 06:00 UTC (51 minutes ago) Visual Flight Rules
Wind Visibility Clouds
160° at 3 knots 10,000+ meters
  • Few at 2,000' AGL
Temperatures Readings
Current 17°C / 63°F
Dewpoint 17°C / 63°F
Humidity 100%
Altimeter 30.06" Hg
Pressure 1018 hPa
Elevation 30
METAR DTTL 220600Z 16003KT 050V210 9999 FEW020 17/17 Q1018
Observed Flight Rules
Apr-22 @ 06:00 UTC
(51 minutes ago)
VFR
Wind Visibility
160° at 3 knots 10,000+ meters
Clouds
  • Few at 2,000' AGL
Temperature Dewpoint
17°C / 63°F 17°C / 63°F
Humidity Altimeter Pressure
100% 30.06" Hg 1018 hPa